Time;durP1;ratioP1;P1;durP2;ratioP2;P2;SDS_P1;SDS_P2;PMS_P1;PMS_P2;Temp;Humidity;BMP_temperature;BMP_pressure;BME280_temperature;BME280_humidity;BME280_pressure;Samples;Min_cycle;Max_cycle;Signal;HPM_P1;HPM_P2
2022/05/05 00:00:10;;;;;;;3.58;2.58;;;;;;;15.47;67.84;100075.38;4304465;33;34226;-70
2022/05/05 00:02:38;;;;;;;5.57;3.40;;;;;;;15.05;69.99;100081.06;4291641;33;33918;-70
2022/05/05 00:05:06;;;;;;;5.78;4.00;;;;;;;15.45;68.09;100080.28;4304703;33;34255;-71
2022/05/05 00:07:33;;;;;;;4.35;3.17;;;;;;;15.34;68.23;100087.66;4304672;33;33771;-70
2022/05/05 00:14:23;;;;;;;4.30;2.83;;;;;;;15.26;68.56;100082.72;4304298;33;34078;-71
2022/05/05 00:15:37;;;;;;;3.58;2.72;;;;;;;15.84;66.69;100073.47;4290208;33;33428;-70
2022/05/05 00:18:04;;;;;;;5.20;3.20;;;;;;;15.71;67.09;100077.56;4290442;33;34970;-71
2022/05/05 00:20:32;;;;;;;5.00;3.17;;;;;;;15.97;66.57;100078.38;4289699;33;33866;-71
2022/05/05 00:22:59;;;;;;;3.40;2.87;;;;;;;15.32;68.71;100072.62;4289966;33;34976;-70
2022/05/05 00:25:27;;;;;;;3.72;2.65;;;;;;;15.40;68.45;100080.28;4290082;33;34344;-70
2022/05/05 00:27:55;;;;;;;3.62;2.55;;;;;;;15.26;69.15;100080.00;4291302;33;34690;-70
2022/05/05 00:30:23;;;;;;;5.12;2.60;;;;;;;15.39;68.63;100079.44;4304522;33;34992;-71
2022/05/05 00:32:50;;;;;;;3.60;2.92;;;;;;;15.17;69.43;100081.63;4304341;33;34044;-71
2022/05/05 00:35:17;;;;;;;3.65;2.65;;;;;;;14.88;70.48;100081.28;4304557;33;33472;-71
2022/05/05 00:37:45;;;;;;;4.12;2.60;;;;;;;15.38;68.28;100077.81;4304501;33;34848;-72
2022/05/05 00:40:13;;;;;;;3.92;2.70;;;;;;;15.25;68.84;100077.53;4304679;33;34303;-71
2022/05/05 00:42:40;;;;;;;3.83;2.70;;;;;;;15.50;67.80;100071.25;4303252;33;34118;-72
2022/05/05 00:45:08;;;;;;;2.70;2.35;;;;;;;15.54;67.40;100064.16;4304365;33;33473;-71
2022/05/05 00:47:36;;;;;;;4.10;2.62;;;;;;;15.57;67.24;100058.97;4304207;33;33678;-70
2022/05/05 00:50:05;;;;;;;2.97;2.35;;;;;;;15.68;66.83;100059.78;4290938;33;35130;-71
2022/05/05 00:52:33;;;;;;;4.85;2.92;;;;;;;15.43;67.50;100057.06;4304426;33;34361;-70
2022/05/05 00:55:00;;;;;;;3.78;2.70;;;;;;;15.36;67.65;100060.87;4304342;33;34129;-70
2022/05/05 00:57:28;;;;;;;3.42;2.45;;;;;;;15.24;68.35;100054.03;4303726;33;34022;-71
2022/05/05 00:59:59;;;;;;;3.70;2.50;;;;;;;15.33;67.77;100052.38;4291236;33;34353;-71
2022/05/05 01:02:27;;;;;;;2.95;2.22;;;;;;;15.00;69.05;100057.28;4304352;33;33844;-70
2022/05/05 01:04:56;;;;;;;4.70;2.90;;;;;;;14.78;69.78;100065.69;4304122;33;33332;-70
2022/05/05 01:07:25;;;;;;;3.53;2.70;;;;;;;14.85;69.51;100054.50;4304278;33;33863;-71
2022/05/05 01:09:53;;;;;;;3.35;2.62;;;;;;;15.26;68.00;100060.84;4304233;33;34201;-71
2022/05/05 01:12:23;;;;;;;3.40;2.58;;;;;;;15.38;67.34;100064.16;4290816;33;35118;-70
2022/05/05 01:14:51;;;;;;;3.17;2.40;;;;;;;15.16;68.22;100050.75;4304235;33;33801;-72
2022/05/05 01:17:18;;;;;;;3.78;2.85;;;;;;;15.38;67.37;100064.16;4303983;33;33955;-71
2022/05/05 01:19:46;;;;;;;7.12;2.47;;;;;;;15.78;65.82;100076.19;4291012;33;34024;-71
2022/05/05 01:22:15;;;;;;;3.35;2.30;;;;;;;15.08;68.26;100059.47;4304022;33;34660;-71
2022/05/05 01:30:14;;;;;;;4.00;2.30;;;;;;;14.91;68.98;100073.38;4304137;33;34234;-70
2022/05/05 01:32:42;;;;;;;5.55;2.95;;;;;;;15.04;68.67;100069.31;4303738;33;34175;-71
2022/05/05 01:35:09;;;;;;;4.00;2.72;;;;;;;14.89;69.14;100070.09;4303950;33;33356;-71
2022/05/05 01:37:41;;;;;;;3.90;2.37;;;;;;;14.81;69.43;100067.06;4303879;33;33834;-71
2022/05/05 01:40:09;;;;;;;3.40;2.40;;;;;;;14.86;69.23;100070.66;4304110;33;33969;-70
2022/05/05 01:42:38;;;;;;;3.67;2.75;;;;;;;15.12;68.23;100079.72;4303796;33;33817;-69
2022/05/05 01:45:06;;;;;;;4.10;2.95;;;;;;;14.91;68.85;100075.28;4290878;33;34155;-71
2022/05/05 01:47:34;;;;;;;5.32;2.58;;;;;;;14.95;68.51;100077.22;4304001;33;34650;-70
2022/05/05 01:50:03;;;;;;;2.78;2.12;;;;;;;14.89;68.63;100082.94;4303652;33;34194;-70
2022/05/05 01:52:30;;;;;;;3.55;2.70;;;;;;;15.12;67.67;100090.66;4303269;33;33881;-70
2022/05/05 01:54:58;;;;;;;3.47;2.60;;;;;;;14.56;69.58;100102.22;4302707;33;34141;-70
2022/05/05 01:57:26;;;;;;;3.12;2.65;;;;;;;14.43;70.42;100099.13;4290625;33;33832;-70
2022/05/05 01:59:53;;;;;;;4.75;2.80;;;;;;;14.80;68.20;100118.16;4303729;33;35184;-71
2022/05/05 02:02:22;;;;;;;3.55;2.47;;;;;;;14.37;70.00;100131.03;4303805;33;34794;-69
2022/05/05 02:04:50;;;;;;;3.85;2.90;;;;;;;14.41;69.90;100137.59;4303406;33;34392;-71
2022/05/05 02:07:18;;;;;;;4.95;3.12;;;;;;;14.68;68.88;100133.94;4303408;33;33761;-71
2022/05/05 02:09:45;;;;;;;6.65;3.42;;;;;;;14.22;70.51;100139.94;4303519;33;35225;-70
2022/05/05 02:12:13;;;;;;;4.57;2.83;;;;;;;14.13;70.89;100141.53;4303361;33;33940;-71
2022/05/05 02:14:40;;;;;;;3.65;2.87;;;;;;;14.32;70.25;100139.19;4303496;33;33626;-70
2022/05/05 02:17:09;;;;;;;4.40;3.15;;;;;;;14.19;70.71;100137.75;4303506;33;34064;-70
2022/05/05 02:19:37;;;;;;;4.90;3.37;;;;;;;14.24;70.65;100142.41;4302893;33;33895;-70
2022/05/05 02:22:05;;;;;;;3.87;2.83;;;;;;;14.38;70.00;100143.56;4303008;33;34021;-70
2022/05/05 02:24:32;;;;;;;4.40;2.70;;;;;;;14.65;68.60;100145.41;4303389;33;33370;-71
2022/05/05 02:27:00;;;;;;;5.43;2.95;;;;;;;14.73;67.88;100140.25;4303220;33;34340;-71
2022/05/05 02:29:27;;;;;;;4.82;3.03;;;;;;;14.95;67.09;100141.97;4303266;33;35059;-70
2022/05/05 02:31:55;;;;;;;4.62;3.30;;;;;;;14.76;67.80;100139.69;4290015;33;33969;-70
2022/05/05 02:34:28;;;;;;;5.00;3.10;;;;;;;14.55;68.29;100136.06;4303419;33;33285;-71
2022/05/05 02:39:42;;;;;;;4.97;2.78;;;;;;;14.66;68.10;100136.91;4303212;33;34139;-74
2022/05/05 02:42:09;;;;;;;4.47;3.10;;;;;;;14.59;68.55;100139.09;4290166;33;33915;-71
2022/05/05 02:44:37;;;;;;;3.75;2.62;;;;;;;14.53;68.96;100137.38;4303003;33;34397;-71
2022/05/05 02:47:05;;;;;;;5.25;3.60;;;;;;;14.62;68.65;100135.00;4303156;33;33926;-71
2022/05/05 02:49:32;;;;;;;4.53;3.28;;;;;;;14.41;69.10;100139.53;4303027;33;34948;-71
2022/05/05 02:52:00;;;;;;;6.35;3.42;;;;;;;14.07;70.51;100137.94;4302347;33;34218;-71
2022/05/05 02:57:14;;;;;;;4.50;3.08;;;;;;;13.52;72.32;100126.34;4303274;33;34762;-70
2022/05/05 02:59:42;;;;;;;3.70;2.92;;;;;;;13.34;73.32;100126.69;4302968;33;34188;-70
2022/05/05 03:02:10;;;;;;;4.45;2.80;;;;;;;13.48;72.60;100130.66;4303017;33;34583;-70
2022/05/05 03:04:37;;;;;;;4.90;3.20;;;;;;;14.00;70.45;100120.97;4289674;33;34356;-70
2022/05/05 03:07:05;;;;;;;4.30;2.87;;;;;;;13.40;72.26;100128.37;4303646;33;33920;-71
2022/05/05 03:09:33;;;;;;;4.25;3.28;;;;;;;13.99;69.94;100137.59;4291908;33;35086;-71
2022/05/05 03:12:00;;;;;;;4.55;2.80;;;;;;;13.92;69.99;100129.66;4291559;33;33987;-70
2022/05/05 03:14:28;;;;;;;4.62;3.08;;;;;;;13.69;71.12;100126.22;4305037;33;33518;-71
2022/05/05 03:16:56;;;;;;;4.07;2.78;;;;;;;13.56;71.77;100128.53;4304880;33;34809;-71
2022/05/05 03:19:23;;;;;;;3.80;2.97;;;;;;;13.71;71.24;100124.06;4304818;33;34325;-69
2022/05/05 03:21:51;;;;;;;5.15;3.15;;;;;;;13.57;71.71;100125.56;4291650;33;33956;-71
2022/05/05 03:24:18;;;;;;;4.68;3.35;;;;;;;13.40;72.29;100125.66;4304884;33;34372;-70
2022/05/05 03:26:46;;;;;;;4.80;2.92;;;;;;;13.10;73.37;100121.53;4304744;33;34774;-71
2022/05/05 03:29:14;;;;;;;4.07;2.78;;;;;;;13.10;73.94;100131.59;4305058;33;35014;-72
2022/05/05 03:31:41;;;;;;;3.80;2.60;;;;;;;13.40;72.70;100122.94;4304645;33;34822;-70
2022/05/05 03:34:09;;;;;;;4.00;2.75;;;;;;;13.89;70.46;100116.53;4304556;33;34011;-70
2022/05/05 03:36:38;;;;;;;4.25;3.22;;;;;;;14.25;69.37;100116.75;4304745;33;33481;-71
2022/05/05 03:39:05;;;;;;;4.43;2.85;;;;;;;14.22;69.62;100114.56;4304840;33;34319;-70
2022/05/05 03:41:33;;;;;;;5.00;3.30;;;;;;;14.28;69.68;100118.97;4304589;33;34061;-71
2022/05/05 03:44:00;;;;;;;4.82;3.17;;;;;;;13.88;71.21;100123.06;4304770;33;33554;-70
2022/05/05 03:46:29;;;;;;;4.65;2.97;;;;;;;14.01;70.91;100114.44;4304807;33;33785;-69
2022/05/05 03:48:56;;;;;;;3.17;2.50;;;;;;;13.82;71.68;100119.50;4304656;33;33916;-70
2022/05/05 03:51:24;;;;;;;4.15;2.60;;;;;;;13.92;71.75;100125.00;4303978;33;34719;-70
2022/05/05 03:53:52;;;;;;;4.53;2.90;;;;;;;13.73;72.17;100116.41;4304761;33;33291;-72
2022/05/05 03:56:20;;;;;;;4.53;2.70;;;;;;;13.26;74.37;100110.78;4304530;33;34747;-72
2022/05/05 03:58:47;;;;;;;5.30;3.50;;;;;;;13.36;74.15;100118.28;4304372;33;34209;-67
2022/05/05 04:01:15;;;;;;;4.93;3.20;;;;;;;13.93;71.58;100121.22;4296034;33;32751;-66
2022/05/05 04:03:45;;;;;;;4.82;3.35;;;;;;;14.07;70.37;100124.28;4296763;33;34195;-67
2022/05/05 04:06:13;;;;;;;5.05;3.20;;;;;;;14.39;69.92;100130.78;4297492;33;34641;-67
2022/05/05 04:08:40;;;;;;;5.37;3.75;;;;;;;14.68;68.51;100131.19;4297112;33;34305;-66
2022/05/05 04:11:08;;;;;;;5.32;3.22;;;;;;;14.67;68.34;100122.19;4297352;33;34565;-69
2022/05/05 04:13:36;;;;;;;5.10;3.17;;;;;;;14.49;69.77;100131.66;4296994;33;33444;-68
2022/05/05 04:16:09;;;;;;;3.90;2.65;;;;;;;14.54;68.86;100128.13;4297499;33;34106;-67
2022/05/05 04:18:37;;;;;;;3.37;2.37;;;;;;;14.84;68.17;100130.19;4295648;33;34769;-66
2022/05/05 04:21:05;;;;;;;3.72;2.50;;;;;;;15.10;67.22;100130.28;4297730;33;34767;-66
2022/05/05 04:23:36;;;;;;;3.60;2.33;;;;;;;15.01;67.47;100124.50;4296304;33;33315;-67
2022/05/05 04:26:11;;;;;;;3.87;2.30;;;;;;;14.76;69.53;100133.44;4295823;33;34745;-67
2022/05/05 04:28:41;;;;;;;3.25;2.17;;;;;;;14.79;68.86;100134.78;4296916;33;34316;-66
2022/05/05 04:31:11;;;;;;;3.80;2.58;;;;;;;14.94;69.01;100134.84;4298839;33;34245;-68
2022/05/05 04:33:38;;;;;;;3.05;2.30;;;;;;;14.59;71.70;100138.28;4283710;33;33683;-66
2022/05/05 04:36:07;;;;;;;6.18;3.37;;;;;;;14.83;70.74;100144.09;4297898;33;34715;-68
2022/05/05 04:38:35;;;;;;;3.33;2.45;;;;;;;14.40;72.72;100144.12;4295919;33;34077;-68
2022/05/05 04:41:03;;;;;;;4.30;2.47;;;;;;;13.88;76.13;100142.16;4296754;33;33824;-66
2022/05/05 04:43:31;;;;;;;4.53;2.75;;;;;;;14.56;71.92;100142.37;4294864;33;33242;-68
2022/05/05 04:45:59;;;;;;;6.70;2.97;;;;;;;14.64;71.44;100147.28;4283431;33;33949;-69
2022/05/05 04:48:27;;;;;;;3.80;2.62;;;;;;;15.12;69.30;100142.56;4295261;33;33767;-72
2022/05/05 04:50:55;;;;;;;4.25;2.80;;;;;;;14.94;69.73;100146.59;4295207;33;34086;-71
2022/05/05 04:53:22;;;;;;;3.78;2.80;;;;;;;14.68;72.06;100142.13;4296138;33;33709;-73
2022/05/05 04:55:50;;;;;;;3.97;2.75;;;;;;;14.56;71.40;100145.09;4295192;33;34897;-71
2022/05/05 04:58:23;;;;;;;4.03;2.78;;;;;;;14.94;70.19;100146.59;4295907;33;34168;-71
2022/05/05 05:00:51;;;;;;;3.92;2.50;;;;;;;15.14;69.38;100147.75;4295101;33;34319;-68
2022/05/05 05:03:37;;;;;;;3.90;2.50;;;;;;;15.35;68.84;100148.63;4296164;33;33249;-72
2022/05/05 05:06:08;;;;;;;4.85;3.10;;;;;;;15.28;69.11;100137.94;4293707;33;34031;-72
2022/05/05 05:08:36;;;;;;;4.30;2.70;;;;;;;15.48;68.34;100141.81;4282856;33;35617;-72
2022/05/05 05:11:04;;;;;;;4.20;2.90;;;;;;;15.42;68.88;100137.41;4295752;33;34422;-72
2022/05/05 05:13:31;;;;;;;4.15;2.83;;;;;;;15.04;70.78;100143.09;4300347;33;33487;-69
2022/05/05 05:15:59;;;;;;;5.05;3.33;;;;;;;15.15;69.19;100143.94;4293565;33;34132;-72
2022/05/05 05:18:26;;;;;;;3.03;2.35;;;;;;;15.13;69.65;100146.94;4296590;33;33995;-70
2022/05/05 05:20:54;;;;;;;5.25;3.45;;;;;;;15.34;69.87;100147.81;4296220;33;33957;-71
2022/05/05 05:23:22;;;;;;;3.60;2.67;;;;;;;15.66;68.14;100156.84;4299815;33;34480;-67
2022/05/05 05:25:50;;;;;;;5.32;3.20;;;;;;;15.47;68.93;100154.66;4302606;33;33937;-70
2022/05/05 05:28:17;;;;;;;6.07;3.62;;;;;;;15.79;66.05;100150.91;4302776;33;34428;-66
2022/05/05 05:30:45;;;;;;;4.10;2.75;;;;;;;15.86;65.86;100147.88;4302109;33;33782;-66
2022/05/05 05:33:12;;;;;;;4.68;3.35;;;;;;;15.38;68.05;100153.56;4302689;33;33299;-69
2022/05/05 05:35:40;;;;;;;4.60;3.22;;;;;;;15.83;67.20;100148.41;4302460;33;33788;-68
2022/05/05 05:38:08;;;;;;;5.45;3.40;;;;;;;16.08;65.98;100156.63;4301869;33;34873;-67
2022/05/05 05:40:35;;;;;;;4.72;3.35;;;;;;;15.78;66.33;100162.91;4302965;33;34311;-67
2022/05/05 05:43:04;;;;;;;5.00;3.00;;;;;;;16.19;63.53;100160.16;4301298;33;34239;-68
2022/05/05 05:45:31;;;;;;;4.25;2.80;;;;;;;16.33;63.73;100160.44;4302162;33;34800;-70
2022/05/05 05:47:58;;;;;;;5.07;3.22;;;;;;;15.92;64.36;100164.03;4302287;33;33723;-66
2022/05/05 05:50:27;;;;;;;4.32;2.92;;;;;;;16.21;62.93;100160.72;4288198;33;34543;-66
2022/05/05 05:52:54;;;;;;;4.90;3.03;;;;;;;16.00;63.87;100159.91;4288244;33;33631;-67
2022/05/05 05:55:22;;;;;;;6.00;3.55;;;;;;;16.39;64.08;100164.78;4288041;33;34901;-66
2022/05/05 05:57:50;;;;;;;4.85;3.20;;;;;;;16.43;62.08;100165.87;4288388;33;35682;-68
2022/05/05 06:00:18;;;;;;;4.37;2.72;;;;;;;16.57;61.98;100164.19;4287831;33;34512;-65
2022/05/05 06:05:31;;;;;;;4.85;3.00;;;;;;;16.34;63.16;100170.28;4303901;33;34093;-67
2022/05/05 06:08:00;;;;;;;4.72;2.83;;;;;;;16.10;62.85;100168.09;4303475;33;34109;-67
2022/05/05 06:10:28;;;;;;;4.47;2.90;;;;;;;16.71;61.72;100172.63;4303744;33;34268;-67
2022/05/05 06:12:55;;;;;;;5.07;2.87;;;;;;;17.17;60.63;100171.63;4303549;33;33774;-66
2022/05/05 06:15:23;;;;;;;4.62;2.65;;;;;;;17.41;59.08;100169.06;4290299;33;33914;-67
2022/05/05 06:17:51;;;;;;;4.62;3.15;;;;;;;17.32;58.77;100171.56;4303178;33;33884;-66
2022/05/05 06:20:19;;;;;;;4.55;2.83;;;;;;;17.14;58.50;100175.75;4303434;33;33655;-67
2022/05/05 06:22:46;;;;;;;4.70;2.92;;;;;;;17.38;58.36;100181.38;4303409;33;33285;-69
2022/05/05 06:25:14;;;;;;;4.80;3.00;;;;;;;17.55;59.46;100177.47;4303388;33;34056;-68
2022/05/05 06:27:44;;;;;;;4.95;3.03;;;;;;;18.01;56.52;100179.87;4303163;33;34204;-69
2022/05/05 06:30:16;;;;;;;4.07;3.03;;;;;;;18.43;54.82;100181.12;4288877;33;33917;-70
2022/05/05 06:32:45;;;;;;;4.50;3.17;;;;;;;18.97;54.01;100180.00;4276013;33;33480;-66
2022/05/05 06:35:12;;;;;;;4.68;3.10;;;;;;;19.19;53.62;100189.63;4288424;33;34263;-70
2022/05/05 06:37:40;;;;;;;4.50;3.35;;;;;;;19.20;53.43;100181.09;4288695;33;35192;-65
2022/05/05 06:40:08;;;;;;;5.57;3.00;;;;;;;19.63;52.07;100189.28;4288712;33;34100;-66
2022/05/05 06:42:35;;;;;;;4.87;3.10;;;;;;;19.49;52.56;100188.38;4290387;33;33503;-67
2022/05/05 06:45:05;;;;;;;5.22;3.22;;;;;;;19.42;52.64;100193.44;4293605;33;33842;-74
2022/05/05 06:47:33;;;;;;;4.25;2.83;;;;;;;19.95;50.62;100193.19;4305210;33;34069;-73
2022/05/05 06:50:00;;;;;;;4.75;2.90;;;;;;;19.78;50.74;100190.97;4304390;33;34721;-77
2022/05/05 06:52:29;;;;;;;4.22;2.85;;;;;;;19.57;51.32;100198.72;4292040;33;33521;-75
2022/05/05 06:55:08;;;;;;;4.55;2.85;;;;;;;20.18;50.70;100190.63;4304834;33;33942;-74
2022/05/05 06:57:36;;;;;;;4.75;3.00;;;;;;;20.19;50.62;100186.72;4291834;33;34950;-75
2022/05/05 07:00:04;;;;;;;4.35;2.75;;;;;;;20.13;52.69;100194.28;4304980;33;34161;-74
2022/05/05 07:02:31;;;;;;;3.70;2.50;;;;;;;20.85;49.37;100193.78;4288576;33;33525;-73
2022/05/05 07:07:45;;;;;;;4.40;2.80;;;;;;;20.68;50.18;100199.91;4289246;33;34934;-72
2022/05/05 07:13:04;;;;;;;4.68;2.60;;;;;;;20.71;49.45;100201.22;4289091;33;34227;-70
2022/05/05 07:15:32;;;;;;;3.55;2.28;;;;;;;20.69;48.58;100203.47;4288988;33;34030;-72
2022/05/05 07:18:00;;;;;;;4.22;2.58;;;;;;;19.47;51.98;100198.84;4276082;33;34043;-71
2022/05/05 07:20:27;;;;;;;4.37;2.65;;;;;;;19.69;50.93;100203.75;4288540;33;33991;-73
2022/05/05 07:22:58;;;;;;;3.67;2.33;;;;;;;19.30;52.56;100199.38;4289261;33;34345;-71
2022/05/05 07:25:27;;;;;;;2.95;2.30;;;;;;;19.78;52.15;100203.94;4289037;33;33988;-70
2022/05/05 07:27:54;;;;;;;3.47;2.47;;;;;;;20.24;50.59;100208.69;4276007;33;35069;-72
2022/05/05 07:30:23;;;;;;;3.22;2.40;;;;;;;20.02;50.45;100206.56;4288850;33;34590;-73
2022/05/05 07:32:51;;;;;;;3.30;2.20;;;;;;;19.49;51.02;100202.13;4289123;33;33461;-72
2022/05/05 07:35:18;;;;;;;3.12;2.03;;;;;;;19.39;53.31;100208.59;4288433;33;33772;-73
2022/05/05 07:37:46;;;;;;;5.50;2.80;;;;;;;19.81;51.54;100206.09;4289029;33;33996;-71
2022/05/05 07:40:13;;;;;;;3.53;2.17;;;;;;;19.61;51.57;100209.94;4289033;33;34774;-76
2022/05/05 07:42:42;;;;;;;2.75;1.95;;;;;;;19.50;51.64;100213.94;4288880;33;34233;-72
2022/05/05 07:45:10;;;;;;;3.83;2.40;;;;;;;19.93;50.47;100213.87;4288768;33;33807;-72
2022/05/05 07:47:38;;;;;;;5.00;2.62;;;;;;;19.99;51.19;100212.69;4289101;33;34669;-70
2022/05/05 07:50:06;;;;;;;3.10;1.90;;;;;;;19.77;52.94;100214.13;4288140;33;33833;-67
2022/05/05 07:52:35;;;;;;;3.33;2.15;;;;;;;19.89;51.28;100205.41;4288839;33;34414;-71
2022/05/05 07:55:04;;;;;;;3.33;2.30;;;;;;;19.54;52.24;100212.25;4289357;33;33626;-71
2022/05/05 07:57:31;;;;;;;3.00;2.37;;;;;;;19.63;51.56;100218.72;4276538;33;33975;-74
2022/05/05 07:59:59;;;;;;;2.75;2.08;;;;;;;19.96;52.73;100219.63;4289893;33;34886;-71
2022/05/05 08:02:26;;;;;;;4.40;2.10;;;;;;;19.91;51.44;100219.69;4290193;33;33564;-72
2022/05/05 08:04:54;;;;;;;3.33;1.98;;;;;;;19.77;51.33;100218.81;4290213;33;34167;-72
2022/05/05 08:07:22;;;;;;;3.15;2.28;;;;;;;19.97;50.55;100215.72;4290160;33;34274;-74
2022/05/05 08:09:50;;;;;;;3.70;2.30;;;;;;;20.02;49.92;100225.84;4290057;33;33767;-70
2022/05/05 08:12:38;;;;;;;3.95;2.53;;;;;;;19.60;51.86;100224.81;4290041;33;33694;-72
2022/05/05 08:15:07;;;;;;;3.05;2.25;;;;;;;20.12;50.20;100227.63;4289827;33;33963;-73
2022/05/05 08:17:35;;;;;;;3.78;2.53;;;;;;;19.92;49.50;100235.09;4277292;33;34086;-71
2022/05/05 08:20:04;;;;;;;2.17;1.65;;;;;;;20.23;49.65;100232.66;4290102;33;33861;-73
2022/05/05 08:22:31;;;;;;;2.83;2.00;;;;;;;20.45;49.31;100244.97;4290193;33;33446;-72
2022/05/05 08:30:31;;;;;;;2.80;1.60;;;;;;;20.65;45.34;100239.12;4304525;33;33896;-73
2022/05/05 08:32:58;;;;;;;1.90;1.60;;;;;;;21.01;42.55;100243.94;4304591;33;33562;-70
2022/05/05 08:35:27;;;;;;;1.62;1.50;;;;;;;20.98;43.65;100235.47;4304368;33;35174;-73
2022/05/05 08:37:55;;;;;;;1.95;1.33;;;;;;;20.95;44.43;100236.06;4304624;33;34086;-67
2022/05/05 08:40:25;;;;;;;1.75;1.42;;;;;;;21.33;41.52;100236.66;4304234;33;34897;-68
2022/05/05 08:42:53;;;;;;;1.60;1.40;;;;;;;21.34;43.00;100227.28;4304834;33;33822;-66
2022/05/05 08:45:21;;;;;;;2.72;1.67;;;;;;;21.43;42.95;100238.44;4304422;33;34065;-73
2022/05/05 08:47:50;;;;;;;1.70;1.27;;;;;;;21.44;41.79;100231.78;4304255;33;34287;-70
2022/05/05 08:50:18;;;;;;;2.28;1.80;;;;;;;21.38;42.01;100244.00;4304207;33;34102;-73
2022/05/05 08:52:48;;;;;;;2.65;1.58;;;;;;;21.84;40.72;100243.84;4291415;33;34150;-69
2022/05/05 08:55:18;;;;;;;3.10;1.50;;;;;;;21.84;42.12;100241.06;4304141;33;34017;-73
2022/05/05 08:57:46;;;;;;;2.45;1.85;;;;;;;21.83;44.31;100239.44;4291252;33;34281;-70
2022/05/05 09:00:15;;;;;;;2.85;1.62;;;;;;;22.20;42.35;100239.38;4291367;33;34758;-73
2022/05/05 09:02:43;;;;;;;2.58;1.98;;;;;;;22.11;41.21;100239.31;4304157;33;33021;-74
2022/05/05 09:05:11;;;;;;;1.55;1.40;;;;;;;21.70;41.73;100240.28;4290918;33;33962;-74
2022/05/05 09:07:50;;;;;;;2.20;1.67;;;;;;;21.44;43.08;100242.81;4304215;33;33698;-72
2022/05/05 09:10:21;;;;;;;2.58;1.77;;;;;;;21.43;43.37;100243.94;4304099;33;33963;-73
2022/05/05 09:13:01;;;;;;;3.10;2.17;;;;;;;21.06;44.28;100252.12;4304363;33;33529;-74
2022/05/05 09:15:30;;;;;;;2.65;1.90;;;;;;;20.34;46.18;100241.56;4304290;33;34740;-74
2022/05/05 09:18:18;;;;;;;2.33;1.62;;;;;;;20.84;45.57;100249.25;4290916;33;34071;-75
2022/05/05 09:20:48;;;;;;;2.00;1.60;;;;;;;20.98;45.28;100252.84;4303966;33;34146;-74
2022/05/05 09:26:26;;;;;;;3.08;1.83;;;;;;;21.35;43.25;100253.72;4304397;33;33574;-73
2022/05/05 09:28:54;;;;;;;2.90;1.90;;;;;;;21.70;42.86;100252.16;4302332;33;34831;-72
2022/05/05 09:31:22;;;;;;;1.95;1.62;;;;;;;21.45;43.55;100256.31;4304049;33;34132;-70
2022/05/05 09:33:50;;;;;;;2.25;1.55;;;;;;;22.05;41.30;100255.22;4304031;33;33748;-70
2022/05/05 09:36:26;;;;;;;1.60;1.23;;;;;;;21.68;41.82;100242.53;4303842;33;34602;-71
2022/05/05 09:38:56;;;;;;;1.50;1.30;;;;;;;22.12;43.06;100247.31;4304188;33;34981;-73
2022/05/05 09:41:34;;;;;;;2.30;1.40;;;;;;;22.15;42.39;100245.84;4291082;33;33752;-73
2022/05/05 09:44:13;;;;;;;1.45;1.35;;;;;;;22.60;42.99;100243.06;4291197;33;33424;-74
2022/05/05 09:46:43;;;;;;;2.00;1.48;;;;;;;22.69;40.06;100243.94;4290778;33;33944;-73
2022/05/05 09:49:17;;;;;;;1.00;0.90;;;;;;;22.48;39.45;100238.16;4291197;33;35187;-71
2022/05/05 09:57:39;;;;;;;2.00;1.40;;;;;;;22.65;40.01;100248.47;4303954;33;34074;-70
2022/05/05 09:57:40;;;;;;;1.87;1.60;;;;;;;22.68;38.63;100244.25;4303507;33;34769;-72
2022/05/05 10:05:45;;;;;;;1.58;1.30;;;;;;;23.00;36.77;100247.78;4303496;33;34407;-69
2022/05/05 10:08:21;;;;;;;1.75;1.05;;;;;;;22.80;38.04;100238.13;4290568;33;34921;-69
2022/05/05 10:10:48;;;;;;;1.65;1.10;;;;;;;23.31;38.98;100248.59;4303697;33;35046;-71
2022/05/05 10:13:20;;;;;;;1.48;1.10;;;;;;;23.80;36.96;100236.59;4290491;33;33749;-71
2022/05/05 10:15:51;;;;;;;1.77;1.35;;;;;;;23.50;37.23;100239.19;4303665;33;33413;-73
2022/05/05 10:18:29;;;;;;;2.25;1.23;;;;;;;23.53;35.80;100247.63;4305212;33;34050;-73
2022/05/05 10:20:57;;;;;;;1.83;1.20;;;;;;;22.54;37.21;100230.50;4304015;33;34273;-70
2022/05/05 10:23:41;;;;;;;2.17;1.40;;;;;;;22.59;37.48;100227.63;4304726;33;34216;-69
2022/05/05 10:26:10;;;;;;;1.35;1.25;;;;;;;22.87;39.06;100246.75;4305050;33;34635;-73
2022/05/05 10:28:38;;;;;;;2.00;1.45;;;;;;;22.21;37.86;100243.78;4288940;33;34035;-69
2022/05/05 10:31:12;;;;;;;2.15;1.20;;;;;;;23.12;37.01;100232.25;4290431;33;34489;-67
2022/05/05 10:34:01;;;;;;;1.15;1.05;;;;;;;22.75;38.03;100233.56;4290642;33;33828;-68
2022/05/05 10:36:29;;;;;;;1.80;1.20;;;;;;;23.41;37.13;100230.87;4300182;33;34316;-70
2022/05/05 10:38:57;;;;;;;1.48;1.25;;;;;;;23.22;37.60;100235.84;4304976;33;34022;-70
2022/05/05 10:41:37;;;;;;;1.73;1.20;;;;;;;23.30;35.75;100235.06;4304857;33;34249;-70
2022/05/05 10:44:17;;;;;;;1.65;1.40;;;;;;;22.81;36.23;100243.34;4305316;33;34610;-70
2022/05/05 10:46:51;;;;;;;1.40;1.30;;;;;;;23.41;37.34;100235.56;4305010;33;33508;-69
2022/05/05 10:49:40;;;;;;;1.67;1.30;;;;;;;23.21;37.45;100237.81;4304611;33;33959;-73
2022/05/05 10:52:10;;;;;;;1.40;1.00;;;;;;;23.75;37.40;100234.78;4304988;33;34342;-75
2022/05/05 10:54:43;;;;;;;1.55;1.20;;;;;;;24.04;38.99;100236.09;4292140;33;34600;-70
2022/05/05 10:57:26;;;;;;;1.50;1.30;;;;;;;24.42;38.10;100240.94;4291686;33;33755;-76
2022/05/05 11:00:24;;;;;;;1.12;1.02;;;;;;;24.56;34.79;100236.87;4304918;33;34602;-71
2022/05/05 11:02:58;;;;;;;0.93;0.90;;;;;;;24.20;36.39;100228.13;4283038;33;33421;-73
2022/05/05 11:05:35;;;;;;;1.25;1.15;;;;;;;24.57;36.75;100223.81;4304797;33;33663;-74
2022/05/05 11:08:10;;;;;;;1.58;1.27;;;;;;;24.55;34.58;100223.31;4304805;33;33399;-74
2022/05/05 11:10:48;;;;;;;1.15;1.05;;;;;;;24.91;34.99;100241.47;4304829;33;33997;-75
2022/05/05 11:13:38;;;;;;;1.45;1.10;;;;;;;25.14;35.77;100230.87;4291813;33;33835;-69
2022/05/05 11:22:19;;;;;;;1.30;1.10;;;;;;;24.49;34.34;100225.47;4304731;33;34131;-70
2022/05/05 11:24:52;;;;;;;1.50;1.30;;;;;;;24.22;38.94;100223.87;4304430;33;35085;-69
2022/05/05 11:27:21;;;;;;;1.67;1.50;;;;;;;23.96;35.67;100210.03;4302514;33;34022;-70
2022/05/05 11:29:51;;;;;;;2.22;1.27;;;;;;;23.99;36.42;100214.91;4295727;33;34371;-72
2022/05/05 11:32:20;;;;;;;1.37;1.27;;;;;;;23.52;36.73;100204.47;4289047;33;33999;-73
2022/05/05 11:34:48;;;;;;;1.50;1.30;;;;;;;24.40;37.35;100207.19;4287634;33;35074;-71
2022/05/05 11:37:17;;;;;;;1.90;1.30;;;;;;;25.00;34.84;100203.37;4288923;33;33905;-74
2022/05/05 11:39:46;;;;;;;1.00;1.00;;;;;;;24.64;33.68;100214.97;4288961;33;33259;-74
2022/05/05 11:42:14;;;;;;;1.58;1.25;;;;;;;25.13;35.53;100213.41;4288964;33;33968;-75
2022/05/05 11:44:43;;;;;;;1.95;1.20;;;;;;;25.29;34.77;100199.81;4294380;33;33694;-73
2022/05/05 11:47:14;;;;;;;1.60;1.20;;;;;;;25.42;34.61;100208.19;4303046;33;34557;-75
2022/05/05 11:49:43;;;;;;;1.25;1.05;;;;;;;24.84;34.54;100205.06;4302321;33;34611;-73
2022/05/05 11:52:18;;;;;;;2.58;1.30;;;;;;;24.09;33.82;100194.38;4302513;33;33944;-73
2022/05/05 11:54:49;;;;;;;1.23;1.12;;;;;;;24.81;35.91;100200.22;4302836;33;35016;-70
2022/05/05 11:57:39;;;;;;;2.83;1.42;;;;;;;24.66;33.22;100190.47;4289783;33;33920;-73
2022/05/05 12:02:58;;;;;;;1.90;1.27;;;;;;;25.69;33.52;100184.62;4291796;33;33628;-71
2022/05/05 12:05:25;;;;;;;1.77;1.12;;;;;;;25.47;32.61;100181.03;4301856;33;34488;-73
2022/05/05 12:07:54;;;;;;;1.37;1.05;;;;;;;25.25;32.69;100179.41;4289943;33;34791;-71
2022/05/05 12:10:22;;;;;;;1.62;1.23;;;;;;;25.06;34.14;100179.03;4302481;33;34245;-71
2022/05/05 12:13:01;;;;;;;1.58;1.12;;;;;;;25.70;31.95;100175.97;4290624;33;33753;-72
2022/05/05 12:15:33;;;;;;;1.20;1.10;;;;;;;25.46;31.16;100184.16;4302993;33;34778;-71
2022/05/05 12:18:00;;;;;;;1.45;1.17;;;;;;;25.98;30.93;100172.59;4303376;33;34417;-72
2022/05/05 12:20:29;;;;;;;1.20;1.10;;;;;;;24.72;32.55;100175.28;4302522;33;33536;-70
2022/05/05 12:22:59;;;;;;;0.80;0.80;;;;;;;25.66;30.22;100171.41;4302864;33;34717;-72